ケルン/ボン の空港の天気 - METARとTAF

ケルン・ボン空港 ( EDDK / CGN ) - ドイツ ケルン/ボン
飛行場実況気象(Metar)
観測時間01/16 19:50 CET (01/16 18:50 UTC)
風向・風速西 5m/s
視程10km以上
天気現象弱い雨
全天の8割程度の雲 雲底高度 300m
気温5℃
湿度87%
気圧1028hPa
METAREDDK 161850Z 27009KT 9999 -RA BKN010 05/03 Q1028 TEMPO BKN008
過去の天気等 Google飛行場航空写真 Wunderground天気予報

過去48時間のMETAR

飛行場予報(TAF)
発表時間: 1/16 18:00 CET (1/16 17:00 UTC)
予報対象時間: 16日19時 CET ~ 18日1時 CET
風向・風速西 4m/s
視程10km以上
全天の8割程度の雲 雲底高度 340m
16日20時 CET ~ 16日23時 CET に徐々に
全天の8割程度の雲 雲底高度 240m
16日23時 CET ~ 17日10時 CET に 確率 30% で一時的に
視程4500m
天気現象弱い霧雨雨 もや
全天の8割程度の雲 雲底高度 370m
17日10時 CET ~ 17日13時 CET に徐々に
全天の8割程度の雲 雲底高度 370m
17日13時 CET ~ 17日18時 CET に一時的に
全天の8割程度の雲 雲底高度 610m
17日18時 CET ~ 17日20時 CET に徐々に
全天の8割程度の雲 雲底高度 180m
TAF EDDK 161700Z 1618/1724 28008KT 9999 BKN011
BECMG 1619/1622 BKN008
PROB30 TEMPO 1622/1709 4500 -DZRA BR BKN012
BECMG 1709/1712 BKN012
TEMPO 1712/1717 BKN020
BECMG 1717/1719 BKN006